To NAV CANADA Home Page Login to a new session Search on AWWS site Feedback and Comments Disclaimer Vers la page française équivalente Tips FAQ What's new on the site To the Forecasts and Observations / NOTAM section To "File a Flight Plan" website Publications and other links Update of the User's profile FIC Telephone Numbers My Weather Data Folder Route Weather Data Regional Weather Data Local Weather Data To the Forecasts and Observations / NOTAM section
Request Generated 07/30/2015 at 04:02:15 UTC . Weather information available at that time is displayed.

METAR/TAF

WINDSOR/ON    

METAR CYQG 300400Z 28008KT 15SM FEW270 23/15 A2992 RMK CI1 SLP129
DENSITY ALT 1600FT=
METAR CYQG 300300Z 29010KT 15SM FEW270 23/16 A2992 RMK CI2 SLP127
DENSITY ALT 1700FT=
METAR CYQG 300200Z 25007KT 12SM FEW280 25/24 A2989 RMK CI1 SLP119
DENSITY ALT 1900FT=

TAF CYQG 292338Z 3000/3024 24008KT P6SM BKN040
BECMG 3000/3002 28010KT SKC
FM301200 27008KT P6SM SKC
BECMG 3015/3017 26012G22KT
BECMG 3022/3024 27012KT
RMK NXT FCST BY 300600Z=
Your time UTC time
Weather data provided by Environment Canada and NAV CANADA